Time;durP1;ratioP1;P1;durP2;ratioP2;P2;SDS_P1;SDS_P2;PMS_P1;PMS_P2;Temp;Humidity;BMP_temperature;BMP_pressure;BME280_temperature;BME280_humidity;BME280_pressure;Samples;Min_cycle;Max_cycle;Signal;HPM_P1;HPM_P2
2021/01/26 00:00:55;;;;;;;30.85;19.35;;;-0.50;87.10;;;;;;5037883;28;20021;-63
2021/01/26 00:03:21;;;;;;;29.05;19.45;;;-0.50;87.10;;;;;;5060892;28;20131;-61
2021/01/26 00:05:47;;;;;;;30.73;19.50;;;-0.50;87.30;;;;;;5061709;28;20028;-62
2021/01/26 00:08:13;;;;;;;35.47;20.95;;;-0.50;87.00;;;;;;5056624;28;20462;-61
2021/01/26 00:10:39;;;;;;;29.83;19.45;;;-0.50;87.10;;;;;;5051463;28;20284;-63
2021/01/26 00:13:06;;;;;;;32.50;19.98;;;-0.50;87.30;;;;;;5064249;28;20055;-59
2021/01/26 00:15:32;;;;;;;32.67;20.10;;;-0.50;87.00;;;;;;5071444;28;20094;-60
2021/01/26 00:17:58;;;;;;;31.95;20.25;;;-0.50;86.90;;;;;;5058882;28;20037;-59
2021/01/26 00:20:25;;;;;;;31.40;20.90;;;-0.50;87.00;;;;;;5051340;28;20032;-64
2021/01/26 00:22:51;;;;;;;33.10;21.10;;;-0.50;87.10;;;;;;5061155;28;20040;-63
2021/01/26 00:25:24;;;;;;;35.47;23.27;;;-0.40;87.00;;;;;;5071479;28;20119;-62
2021/01/26 00:27:53;;;;;;;40.33;22.25;;;-0.40;86.60;;;;;;5061130;28;20506;-61
2021/01/26 00:30:22;;;;;;;35.08;21.73;;;-0.50;87.20;;;;;;5032920;28;20437;-62
2021/01/26 00:32:48;;;;;;;38.28;22.83;;;-0.50;87.10;;;;;;5064433;28;20039;-63
2021/01/26 00:35:17;;;;;;;37.42;23.02;;;-0.50;87.40;;;;;;5071381;28;20056;-61
2021/01/26 00:37:42;;;;;;;36.92;22.23;;;-0.60;87.70;;;;;;5062814;28;20170;-61
2021/01/26 00:40:08;;;;;;;35.97;21.77;;;-0.50;87.30;;;;;;5056662;28;20115;-59
2021/01/26 00:42:34;;;;;;;35.88;21.33;;;-0.50;87.20;;;;;;5068581;28;20654;-59
2021/01/26 00:45:00;;;;;;;38.13;21.85;;;-0.60;87.60;;;;;;5054318;28;20127;-61
2021/01/26 00:47:26;;;;;;;34.58;21.38;;;-0.70;87.90;;;;;;5055997;28;20080;-60
2021/01/26 00:49:52;;;;;;;38.75;22.33;;;-0.60;87.30;;;;;;5054257;28;20069;-62
2021/01/26 00:52:18;;;;;;;35.17;21.13;;;-0.60;87.10;;;;;;5071430;28;20151;-62
2021/01/26 00:54:43;;;;;;;37.40;22.10;;;-0.70;87.40;;;;;;5054245;28;20395;-61
2021/01/26 00:57:09;;;;;;;36.30;22.27;;;-0.60;86.90;;;;;;5055460;28;20025;-62
2021/01/26 00:59:34;;;;;;;36.25;23.13;;;-0.50;86.50;;;;;;5074440;28;20036;-60
2021/01/26 01:02:00;;;;;;;34.85;21.13;;;-0.60;86.70;;;;;;5073590;28;20090;-59
2021/01/26 01:04:26;;;;;;;37.90;23.90;;;-0.50;86.50;;;;;;5055775;28;20037;-62
2021/01/26 01:06:52;;;;;;;40.00;22.40;;;-0.60;86.70;;;;;;5053604;28;20028;-61
2021/01/26 01:09:18;;;;;;;35.05;21.80;;;-0.50;86.60;;;;;;5057642;28;20385;-64
2021/01/26 01:11:44;;;;;;;37.40;23.30;;;-0.50;86.30;;;;;;5053175;28;20029;-64
2021/01/26 01:14:09;;;;;;;34.55;22.58;;;-0.50;86.40;;;;;;5069078;28;20037;-64
2021/01/26 01:16:35;;;;;;;37.40;22.70;;;-0.50;86.30;;;;;;5073840;28;20076;-65
2021/01/26 01:19:01;;;;;;;36.97;22.70;;;-0.60;86.60;;;;;;5063044;28;20033;-64
2021/01/26 01:21:27;;;;;;;36.50;22.83;;;-0.60;86.70;;;;;;5052148;28;20119;-64
2021/01/26 01:23:52;;;;;;;33.80;22.63;;;-0.70;86.80;;;;;;5054193;28;20079;-64
2021/01/26 01:26:18;;;;;;;37.38;22.92;;;-0.70;87.40;;;;;;5042141;28;20024;-63
2021/01/26 01:28:43;;;;;;;34.05;22.13;;;-0.70;86.80;;;;;;5055090;28;20051;-63
2021/01/26 01:31:09;;;;;;;32.40;22.40;;;-0.70;86.80;;;;;;5073131;28;20024;-63
2021/01/26 01:33:35;;;;;;;35.92;22.27;;;-0.70;86.70;;;;;;5061154;28;20043;-62
2021/01/26 01:36:00;;;;;;;34.75;22.13;;;-0.70;86.60;;;;;;5068197;28;20487;-64
2021/01/26 01:38:26;;;;;;;40.17;23.75;;;-0.70;86.90;;;;;;5060029;28;20117;-63
2021/01/26 01:40:53;;;;;;;37.63;23.52;;;-0.70;87.90;;;;;;5073234;28;20406;-64
2021/01/26 01:43:20;;;;;;;37.70;23.27;;;-0.70;87.10;;;;;;5067313;28;20037;-64
2021/01/26 01:45:46;;;;;;;38.28;23.73;;;-0.70;87.30;;;;;;5053250;28;20040;-64
2021/01/26 01:48:16;;;;;;;40.40;23.60;;;-0.70;87.20;;;;;;5056525;28;20108;-64
2021/01/26 01:50:53;;;;;;;36.13;21.98;;;-0.70;87.40;;;;;;5055464;28;20040;-64
2021/01/26 01:53:31;;;;;;;38.55;22.77;;;-0.60;86.90;;;;;;5068398;28;20033;-63
2021/01/26 01:56:03;;;;;;;36.33;21.55;;;-0.60;86.70;;;;;;5052947;28;20036;-64
2021/01/26 01:58:32;;;;;;;38.15;22.05;;;-0.60;86.80;;;;;;5058012;28;20040;-64
2021/01/26 02:01:05;;;;;;;34.90;21.85;;;-0.70;86.70;;;;;;5072924;28;20033;-65
2021/01/26 02:03:34;;;;;;;33.63;21.27;;;-0.70;87.10;;;;;;5068213;28;20052;-65
2021/01/26 02:06:01;;;;;;;34.50;22.10;;;-0.80;87.40;;;;;;5018687;28;20360;-65
2021/01/26 02:08:59;;;;;;;34.58;21.58;;;-0.80;87.40;;;;;;5054066;28;20032;-65
2021/01/26 02:11:25;;;;;;;35.15;21.35;;;-0.70;87.10;;;;;;5052260;28;20033;-64
2021/01/26 02:13:51;;;;;;;36.08;21.10;;;-0.80;87.20;;;;;;5041165;28;20032;-64
2021/01/26 02:16:54;;;;;;;32.97;20.70;;;-0.70;88.00;;;;;;5054650;28;20040;-63
2021/01/26 02:19:45;;;;;;;35.00;22.10;;;-0.80;87.30;;;;;;5059053;28;20110;-64
2021/01/26 02:22:28;;;;;;;32.83;21.35;;;-0.70;87.10;;;;;;5070117;28;20383;-64
2021/01/26 02:25:21;;;;;;;31.02;20.10;;;-0.80;87.40;;;;;;5068644;28;20036;-64
2021/01/26 02:28:00;;;;;;;31.65;19.88;;;-0.70;87.40;;;;;;5070751;28;20486;-63
2021/01/26 02:30:44;;;;;;;31.10;19.67;;;-0.70;87.10;;;;;;5067354;28;20037;-64
2021/01/26 02:33:44;;;;;;;32.83;19.13;;;-0.70;87.30;;;;;;5063305;28;20112;-64
2021/01/26 02:36:32;;;;;;;33.50;20.90;;;-0.60;86.80;;;;;;5058075;28;20368;-64
2021/01/26 02:39:23;;;;;;;30.48;19.42;;;-0.60;86.90;;;;;;5071819;28;20479;-65
2021/01/26 02:41:57;;;;;;;28.98;19.38;;;-0.60;86.80;;;;;;5072382;28;20077;-65
2021/01/26 02:44:35;;;;;;;34.33;18.45;;;-0.60;87.00;;;;;;5056930;28;20037;-64
2021/01/26 02:47:17;;;;;;;30.25;18.73;;;-0.60;86.70;;;;;;5052260;28;20068;-63
2021/01/26 02:49:51;;;;;;;28.85;18.67;;;-0.60;86.70;;;;;;5069461;28;20025;-64
2021/01/26 02:52:41;;;;;;;27.98;19.35;;;-0.60;87.00;;;;;;5052021;28;20487;-63
2021/01/26 02:55:28;;;;;;;30.13;18.33;;;-0.60;86.80;;;;;;5051999;28;20039;-64
2021/01/26 02:58:13;;;;;;;26.45;17.25;;;-0.60;87.10;;;;;;5051729;28;20487;-63
2021/01/26 03:00:40;;;;;;;29.20;18.13;;;-0.50;86.70;;;;;;5052046;28;20029;-64
2021/01/26 03:03:18;;;;;;;26.70;18.27;;;-0.60;86.80;;;;;;5052385;28;20298;-62
2021/01/26 03:05:48;;;;;;;28.65;17.60;;;-0.60;87.50;;;;;;5052205;28;20417;-62
2021/01/26 03:08:21;;;;;;;29.45;18.88;;;-0.50;87.00;;;;;;5065995;28;20087;-64
2021/01/26 03:10:54;;;;;;;30.90;17.98;;;-0.40;86.60;;;;;;5051933;28;20200;-64
2021/01/26 03:13:22;;;;;;;29.02;18.35;;;-0.30;86.80;;;;;;5052832;28;20498;-64
2021/01/26 03:15:57;;;;;;;27.05;17.30;;;-0.30;86.70;;;;;;5051395;28;20163;-61
2021/01/26 03:18:32;;;;;;;29.98;18.20;;;-0.30;86.70;;;;;;5056819;28;20147;-63
2021/01/26 03:21:02;;;;;;;25.38;17.90;;;-0.30;86.90;;;;;;5061003;28;20541;-64
2021/01/26 03:23:45;;;;;;;28.70;19.52;;;-0.30;87.00;;;;;;5062105;28;20371;-64
2021/01/26 03:26:16;;;;;;;29.55;18.45;;;-0.20;86.60;;;;;;5062106;28;20024;-63
2021/01/26 03:28:44;;;;;;;30.73;19.38;;;-0.20;86.60;;;;;;5042708;28;20056;-64
2021/01/26 03:31:14;;;;;;;25.02;18.17;;;-0.30;87.10;;;;;;5044425;28;20107;-64
2021/01/26 03:33:45;;;;;;;29.00;19.60;;;-0.20;86.80;;;;;;5061829;28;20060;-63
2021/01/26 03:36:11;;;;;;;27.50;18.70;;;-0.20;87.20;;;;;;5064918;28;20027;-62
2021/01/26 03:38:37;;;;;;;28.85;19.23;;;-0.10;87.30;;;;;;5061767;28;20036;-64
2021/01/26 03:41:06;;;;;;;30.00;19.42;;;-0.10;87.50;;;;;;5061125;28;20056;-63
2021/01/26 03:43:32;;;;;;;30.00;19.88;;;0.00;87.60;;;;;;5051808;28;20025;-63
2021/01/26 03:46:27;;;;;;;29.75;19.38;;;-0.10;87.80;;;;;;5071561;28;20375;-64
2021/01/26 03:48:52;;;;;;;31.23;20.13;;;0.00;87.90;;;;;;5067317;28;20430;-64
2021/01/26 03:51:30;;;;;;;29.35;21.23;;;0.10;87.80;;;;;;5063063;28;20033;-64
2021/01/26 03:54:16;;;;;;;30.63;20.98;;;0.00;88.20;;;;;;5067610;28;20041;-64
2021/01/26 03:56:45;;;;;;;28.63;20.08;;;0.00;88.20;;;;;;5051175;28;20380;-64
2021/01/26 03:59:25;;;;;;;32.25;20.50;;;0.20;87.70;;;;;;5056183;28;20498;-64
2021/01/26 04:01:59;;;;;;;35.03;21.23;;;0.30;87.50;;;;;;5070761;28;20363;-63
2021/01/26 04:04:37;;;;;;;28.73;20.23;;;0.30;86.90;;;;;;5064938;28;20044;-64
2021/01/26 04:07:12;;;;;;;33.35;21.98;;;0.40;86.90;;;;;;5058941;28;20086;-64
2021/01/26 04:09:47;;;;;;;28.98;20.50;;;0.40;87.00;;;;;;5030690;28;20044;-64
2021/01/26 04:12:19;;;;;;;34.80;23.02;;;0.40;87.10;;;;;;5055240;28;20040;-64
2021/01/26 04:14:55;;;;;;;34.88;23.08;;;0.40;87.70;;;;;;5062963;28;20036;-64
2021/01/26 04:17:26;;;;;;;34.17;21.83;;;0.50;87.60;;;;;;5075518;28;20040;-64
2021/01/26 04:20:16;;;;;;;32.53;22.42;;;0.50;87.50;;;;;;5066159;28;20054;-64
2021/01/26 04:22:42;;;;;;;32.38;21.55;;;0.60;87.10;;;;;;5055251;28;20035;-62
2021/01/26 04:25:25;;;;;;;29.33;20.90;;;0.60;86.90;;;;;;5065157;28;20447;-64
2021/01/26 04:27:51;;;;;;;27.75;19.58;;;0.60;86.40;;;;;;5075064;28;20085;-64
2021/01/26 04:30:17;;;;;;;32.25;21.80;;;0.50;86.70;;;;;;5073157;28;20492;-64
2021/01/26 04:32:43;;;;;;;29.10;20.45;;;0.60;86.60;;;;;;5074606;28;20093;-64
2021/01/26 04:35:08;;;;;;;32.83;20.40;;;0.60;86.50;;;;;;5073234;28;20040;-64
2021/01/26 04:37:34;;;;;;;30.98;20.60;;;0.60;86.90;;;;;;5057043;28;20546;-64
2021/01/26 04:40:02;;;;;;;32.13;21.42;;;0.70;86.40;;;;;;5055171;28;20090;-63
2021/01/26 04:42:34;;;;;;;34.70;21.63;;;0.70;86.70;;;;;;5055158;28;20056;-63
2021/01/26 04:45:19;;;;;;;32.80;21.77;;;0.60;86.70;;;;;;5061702;28;20542;-65
2021/01/26 04:47:52;;;;;;;28.05;19.75;;;0.60;86.90;;;;;;5074699;28;20029;-64
2021/01/26 04:50:47;;;;;;;28.77;19.23;;;0.60;86.80;;;;;;5069148;28;20174;-64
2021/01/26 04:53:29;;;;;;;;;;;0.70;85.80;;;;;;5074973;28;20075;-64
2021/01/26 04:56:10;;;;;;;29.85;19.83;;;0.80;85.80;;;;;;5060554;28;19913;-64
2021/01/26 04:59:05;;;;;;;33.92;21.65;;;0.60;86.20;;;;;;5036515;28;20444;-64
2021/01/26 05:01:51;;;;;;;32.13;21.48;;;0.70;86.20;;;;;;5055554;28;20037;-65
2021/01/26 05:04:35;;;;;;;32.90;20.38;;;0.60;86.40;;;;;;5054154;28;20494;-63
2021/01/26 05:07:29;;;;;;;30.13;20.23;;;0.60;86.70;;;;;;5061023;28;20109;-65
2021/01/26 05:10:33;;;;;;;32.47;21.98;;;0.60;87.20;;;;;;5071839;28;20507;-64
2021/01/26 05:13:14;;;;;;;31.25;22.02;;;0.50;87.90;;;;;;5073535;28;20045;-63
2021/01/26 05:15:42;;;;;;;31.15;22.30;;;0.50;89.00;;;;;;5064707;28;20039;-64
2021/01/26 05:18:31;;;;;;;32.60;22.10;;;0.50;89.30;;;;;;5054001;28;20037;-64
2021/01/26 05:21:05;;;;;;;35.70;23.45;;;0.50;89.20;;;;;;5079743;28;20111;-65
2021/01/26 05:23:41;;;;;;;34.90;24.15;;;0.50;89.70;;;;;;5073916;28;20059;-63
2021/01/26 05:26:12;;;;;;;39.63;24.50;;;0.40;90.20;;;;;;5072213;28;20119;-64
2021/01/26 05:28:42;;;;;;;37.70;25.25;;;0.40;90.70;;;;;;5073883;28;20048;-65
2021/01/26 05:31:13;;;;;;;36.38;25.90;;;0.30;90.70;;;;;;5044092;28;20060;-65
2021/01/26 05:33:41;;;;;;;35.83;24.27;;;0.40;90.70;;;;;;5053540;28;20025;-65
2021/01/26 05:36:07;;;;;;;37.08;25.00;;;0.40;90.80;;;;;;5058320;28;20025;-65
2021/01/26 05:38:32;;;;;;;33.50;22.25;;;0.40;90.80;;;;;;5053276;28;20505;-65
2021/01/26 05:41:02;;;;;;;34.53;22.00;;;0.40;91.00;;;;;;5054768;28;20561;-64
2021/01/26 05:43:30;;;;;;;31.70;21.55;;;0.40;91.10;;;;;;5053402;28;20112;-63
2021/01/26 05:45:59;;;;;;;33.50;22.70;;;0.40;91.00;;;;;;5061390;28;20083;-65
2021/01/26 05:48:26;;;;;;;31.75;20.67;;;0.40;91.00;;;;;;5074083;28;20029;-65
2021/01/26 05:51:13;;;;;;;29.98;20.70;;;0.40;91.00;;;;;;5066798;28;20079;-63
2021/01/26 05:53:39;;;;;;;28.60;20.13;;;0.40;90.90;;;;;;5053676;28;20116;-65
2021/01/26 05:56:12;;;;;;;29.17;19.90;;;0.50;90.80;;;;;;5061509;28;20048;-65
2021/01/26 05:58:40;;;;;;;27.10;19.63;;;0.50;90.80;;;;;;5073667;28;20111;-64
2021/01/26 06:01:12;;;;;;;27.98;19.77;;;0.40;90.90;;;;;;5065569;28;20029;-62
2021/01/26 06:03:38;;;;;;;30.67;19.35;;;0.60;90.60;;;;;;5053381;28;20037;-64
2021/01/26 06:06:14;;;;;;;27.85;19.67;;;0.50;90.50;;;;;;5042227;28;20036;-65
2021/01/26 06:08:54;;;;;;;26.52;17.95;;;0.60;90.70;;;;;;5053378;28;20190;-62
2021/01/26 06:11:28;;;;;;;29.27;19.80;;;0.60;90.40;;;;;;5035936;28;20037;-59
2021/01/26 06:14:11;;;;;;;28.05;19.92;;;0.40;90.70;;;;;;5052766;28;20032;-61
2021/01/26 06:16:36;;;;;;;25.33;17.63;;;0.50;90.80;;;;;;5063362;28;20438;-64
2021/01/26 06:19:04;;;;;;;23.73;16.90;;;0.60;90.50;;;;;;5054936;28;20033;-62
2021/01/26 06:21:45;;;;;;;22.42;16.73;;;0.60;90.20;;;;;;5063826;28;20025;-60
2021/01/26 06:24:20;;;;;;;26.60;18.55;;;0.70;90.10;;;;;;5034969;28;20352;-61
2021/01/26 06:26:58;;;;;;;;;;;0.70;89.80;;;;;;5063637;28;20036;-61
2021/01/26 06:29:36;;;;;;;25.67;17.10;;;0.80;89.10;;;;;;5072924;28;19904;-61
2021/01/26 06:32:26;;;;;;;24.60;17.05;;;0.80;89.20;;;;;;5071188;28;20123;-62
2021/01/26 06:35:08;;;;;;;22.60;16.63;;;0.80;89.10;;;;;;5072151;28;20040;-59
2021/01/26 06:37:42;;;;;;;26.10;16.10;;;0.70;89.60;;;;;;5070811;28;20387;-61
2021/01/26 06:40:35;;;;;;;22.47;15.80;;;0.80;89.40;;;;;;5072681;28;20068;-62
2021/01/26 06:43:09;;;;;;;23.27;16.80;;;0.80;89.10;;;;;;5053008;28;20519;-63
2021/01/26 06:45:58;;;;;;;37.38;24.02;;;0.80;89.10;;;;;;5052366;28;20060;-60
2021/01/26 06:48:37;;;;;;;24.35;17.38;;;0.80;89.30;;;;;;5052430;28;20552;-59
2021/01/26 06:51:40;;;;;;;22.58;15.50;;;0.80;89.30;;;;;;5060294;28;20566;-62
2021/01/26 06:54:38;;;;;;;23.10;16.80;;;0.90;89.70;;;;;;5048117;28;20036;-61
2021/01/26 06:57:07;;;;;;;24.80;18.10;;;0.80;90.00;;;;;;5061756;28;20115;-59
2021/01/26 07:00:16;;;;;;;25.55;18.15;;;0.80;90.30;;;;;;5072244;28;20032;-61
2021/01/26 07:03:06;;;;;;;30.13;20.88;;;0.80;90.40;;;;;;5015035;28;20182;-63
2021/01/26 07:05:57;;;;;;;28.52;20.13;;;0.70;90.90;;;;;;5071726;28;20486;-63
2021/01/26 07:08:44;;;;;;;31.10;20.55;;;0.70;90.90;;;;;;5088360;22;20041;-60
2021/01/26 07:11:38;;;;;;;32.55;20.75;;;0.70;91.10;;;;;;5051519;28;20438;-56
2021/01/26 07:14:42;;;;;;;30.10;20.42;;;0.80;91.10;;;;;;5026250;28;20044;-56
2021/01/26 07:17:23;;;;;;;31.42;19.60;;;0.80;90.90;;;;;;5021899;28;20058;-56
2021/01/26 07:20:16;;;;;;;29.38;19.67;;;0.80;91.20;;;;;;5043502;28;20037;-58
2021/01/26 07:23:19;;;;;;;31.52;20.60;;;0.80;91.00;;;;;;5050620;28;20684;-59
2021/01/26 07:25:59;;;;;;;29.77;20.35;;;0.90;91.10;;;;;;5028443;28;20081;-58
2021/01/26 07:28:48;;;;;;;27.60;19.85;;;1.00;90.90;;;;;;5051037;28;20097;-60
2021/01/26 07:31:20;;;;;;;30.27;19.13;;;1.00;90.80;;;;;;5050194;28;20041;-58
2021/01/26 07:34:15;;;;;;;30.88;19.10;;;1.00;90.80;;;;;;5052280;28;20505;-58
2021/01/26 07:37:18;;;;;;;28.35;19.80;;;1.00;90.90;;;;;;5052025;28;20032;-58
2021/01/26 07:40:02;;;;;;;29.73;20.05;;;1.00;90.70;;;;;;5052006;28;20025;-56
2021/01/26 07:42:34;;;;;;;30.05;18.90;;;1.10;90.70;;;;;;5014271;28;20033;-56
2021/01/26 07:45:13;;;;;;;28.80;19.50;;;1.20;90.50;;;;;;5032007;28;20096;-57
2021/01/26 07:47:52;;;;;;;30.17;20.48;;;1.10;90.60;;;;;;5032302;28;20108;-58
2021/01/26 07:50:27;;;;;;;29.13;20.33;;;1.10;90.60;;;;;;5016791;28;20032;-59
2021/01/26 07:53:00;;;;;;;30.42;20.70;;;1.20;90.60;;;;;;5050042;28;20033;-55
2021/01/26 07:55:43;;;;;;;39.38;26.42;;;1.20;90.60;;;;;;5036541;28;20061;-58
2021/01/26 07:58:11;;;;;;;30.63;21.75;;;1.20;90.70;;;;;;5022028;28;20104;-59
2021/01/26 08:00:48;;;;;;;29.95;21.35;;;1.30;90.60;;;;;;5044218;28;20025;-58
2021/01/26 08:03:19;;;;;;;31.13;20.45;;;1.30;90.60;;;;;;5031124;28;20036;-58
2021/01/26 08:05:51;;;;;;;29.23;20.83;;;1.30;90.60;;;;;;5048017;28;20025;-58
2021/01/26 08:08:30;;;;;;;27.02;19.85;;;1.40;90.40;;;;;;5033659;28;20503;-59
2021/01/26 08:11:25;;;;;;;27.60;18.83;;;1.40;90.30;;;;;;5050312;28;20052;-53
2021/01/26 08:14:03;;;;;;;28.60;19.25;;;1.20;90.60;;;;;;5047929;28;20040;-56
2021/01/26 08:16:33;;;;;;;28.13;19.55;;;1.20;90.80;;;;;;5048173;28;20052;-56
2021/01/26 08:19:02;;;;;;;31.75;20.30;;;1.30;90.70;;;;;;5050126;28;20484;-57
2021/01/26 08:21:39;;;;;;;27.08;17.60;;;1.40;90.50;;;;;;5031210;28;20391;-59
2021/01/26 08:24:33;;;;;;;27.67;18.85;;;1.40;90.60;;;;;;5049549;28;20056;-54
2021/01/26 08:27:33;;;;;;;33.38;21.38;;;1.40;90.50;;;;;;5037161;28;20037;-58
2021/01/26 08:30:08;;;;;;;30.08;20.73;;;1.50;90.50;;;;;;5050639;28;20045;-58
2021/01/26 08:32:34;;;;;;;24.23;17.73;;;1.60;90.30;;;;;;5049699;28;20036;-59
2021/01/26 08:35:07;;;;;;;25.45;17.60;;;1.70;90.00;;;;;;5050879;28;20040;-58
2021/01/26 08:37:42;;;;;;;23.77;17.38;;;1.70;90.00;;;;;;5016353;28;20091;-56
2021/01/26 08:40:09;;;;;;;25.45;18.42;;;1.70;89.70;;;;;;5031473;28;20034;-60
2021/01/26 08:42:40;;;;;;;21.98;16.83;;;1.70;90.00;;;;;;5031866;28;20108;-55
2021/01/26 08:45:25;;;;;;;26.98;19.88;;;1.80;89.90;;;;;;5030831;28;20029;-57
2021/01/26 08:48:28;;;;;;;29.83;21.40;;;1.80;89.90;;;;;;5031528;28;20033;-60
2021/01/26 08:50:54;;;;;;;23.05;17.38;;;1.90;89.60;;;;;;4982649;28;20160;-59
2021/01/26 08:53:28;;;;;;;25.02;18.50;;;1.90;88.90;;;;;;5031417;28;20092;-60
2021/01/26 08:55:56;;;;;;;23.52;16.80;;;2.00;88.90;;;;;;5014300;28;20033;-59
2021/01/26 08:58:47;;;;;;;23.08;17.05;;;2.10;89.20;;;;;;5035409;28;20041;-58
2021/01/26 09:01:22;;;;;;;28.20;17.90;;;2.10;89.10;;;;;;5027400;28;20537;-58
2021/01/26 09:03:54;;;;;;;;;;;2.10;88.80;;;;;;5033812;28;20196;-62
2021/01/26 09:06:43;;;;;;;23.27;17.65;;;2.10;89.10;;;;;;5039481;28;19917;-55
2021/01/26 09:09:31;;;;;;;23.20;17.10;;;2.10;89.00;;;;;;5042184;28;20406;-58
2021/01/26 09:12:00;;;;;;;25.55;17.40;;;2.10;89.40;;;;;;5039208;28;20045;-60
2021/01/26 09:14:44;;;;;;;23.13;17.45;;;2.20;89.40;;;;;;5033738;28;20136;-60
2021/01/26 09:17:17;;;;;;;22.10;16.50;;;2.30;88.90;;;;;;5035682;28;20026;-59
2021/01/26 09:19:48;;;;;;;26.77;18.15;;;2.30;87.80;;;;;;5028061;28;20025;-60
2021/01/26 09:22:20;;;;;;;22.17;17.08;;;2.10;88.90;;;;;;5043782;28;20119;-60
2021/01/26 09:24:48;;;;;;;23.83;17.58;;;2.40;88.40;;;;;;5034025;28;20040;-57
2021/01/26 09:27:30;;;;;;;22.08;16.85;;;2.50;88.20;;;;;;5043519;28;20032;-56
2021/01/26 09:30:11;;;;;;;22.58;16.83;;;2.60;87.70;;;;;;5053988;28;20041;-58
2021/01/26 09:32:40;;;;;;;21.98;16.65;;;2.80;86.30;;;;;;5051931;28;20116;-54
2021/01/26 09:35:11;;;;;;;22.52;15.95;;;2.90;86.20;;;;;;5052188;28;20044;-57
2021/01/26 09:37:37;;;;;;;23.38;17.55;;;2.90;85.80;;;;;;5045629;28;20067;-57
2021/01/26 09:40:11;;;;;;;21.27;16.25;;;2.90;86.10;;;;;;5053771;28;20068;-56
2021/01/26 09:42:37;;;;;;;26.60;17.92;;;2.80;85.70;;;;;;5042136;28;20072;-59
2021/01/26 09:45:09;;;;;;;23.95;17.70;;;2.70;87.10;;;;;;5033591;28;20037;-57
2021/01/26 09:47:35;;;;;;;22.75;17.45;;;2.80;86.80;;;;;;5017131;28;20044;-57
2021/01/26 09:50:09;;;;;;;22.58;17.30;;;2.90;86.20;;;;;;5034968;28;20041;-58
2021/01/26 09:52:36;;;;;;;21.65;16.83;;;2.90;85.90;;;;;;5052779;28;20044;-59
2021/01/26 09:55:14;;;;;;;27.52;19.63;;;2.90;86.60;;;;;;5053172;28;20128;-57
2021/01/26 09:57:41;;;;;;;25.88;18.80;;;2.90;86.50;;;;;;5048580;28;20128;-58
2021/01/26 10:00:17;;;;;;;26.52;19.15;;;2.80;86.90;;;;;;5053057;28;20029;-54
2021/01/26 10:02:43;;;;;;;28.02;18.30;;;2.80;87.30;;;;;;5018811;28;20426;-56
2021/01/26 10:05:11;;;;;;;24.30;18.27;;;3.00;86.80;;;;;;5052951;28;20033;-58
2021/01/26 10:07:37;;;;;;;24.55;19.17;;;3.10;86.10;;;;;;5044532;28;20041;-58
2021/01/26 10:10:20;;;;;;;23.30;18.48;;;3.30;84.20;;;;;;5015625;28;20365;-57
2021/01/26 10:12:45;;;;;;;23.55;17.02;;;3.40;83.90;;;;;;5041919;28;20033;-59
2021/01/26 10:15:18;;;;;;;24.77;18.10;;;3.50;83.90;;;;;;5052871;28;20039;-53
2021/01/26 10:18:02;;;;;;;23.50;16.38;;;3.40;83.20;;;;;;5026836;28;20111;-55
2021/01/26 10:20:32;;;;;;;26.90;18.50;;;3.20;83.60;;;;;;5032741;28;20033;-56
2021/01/26 10:23:12;;;;;;;25.65;18.13;;;2.50;87.00;;;;;;5046347;28;20380;-55
2021/01/26 10:25:41;;;;;;;28.23;18.02;;;2.50;87.80;;;;;;5052746;28;20040;-57
2021/01/26 10:28:12;;;;;;;26.20;18.70;;;2.50;86.40;;;;;;5051190;28;20095;-54
2021/01/26 10:30:46;;;;;;;27.10;19.52;;;2.40;87.00;;;;;;5052679;28;20025;-54
2021/01/26 10:33:35;;;;;;;31.85;18.67;;;2.50;87.40;;;;;;5037718;28;20033;-56
2021/01/26 10:36:24;;;;;;;23.60;17.90;;;2.40;87.10;;;;;;5043301;28;20045;-58
2021/01/26 10:38:50;;;;;;;28.92;18.73;;;2.50;87.40;;;;;;5054043;28;20037;-57
2021/01/26 10:41:24;;;;;;;27.20;19.38;;;2.50;86.70;;;;;;5037370;28;20109;-58
2021/01/26 10:44:08;;;;;;;26.58;18.60;;;2.30;87.50;;;;;;5034295;28;20050;-59
2021/01/26 10:46:39;;;;;;;29.58;19.00;;;2.40;87.30;;;;;;5041282;28;20439;-56
2021/01/26 10:49:15;;;;;;;26.48;18.80;;;2.40;87.80;;;;;;5022497;28;20025;-59
2021/01/26 10:51:43;;;;;;;25.88;18.30;;;2.40;87.60;;;;;;5047786;28;20056;-56
2021/01/26 10:54:10;;;;;;;26.48;18.45;;;2.40;87.90;;;;;;5051114;28;20540;-56
2021/01/26 10:56:35;;;;;;;29.73;20.23;;;2.50;86.90;;;;;;5053485;28;20149;-58
2021/01/26 10:59:01;;;;;;;24.92;18.83;;;2.50;86.90;;;;;;5050643;28;20111;-58
2021/01/26 11:01:27;;;;;;;26.23;17.80;;;2.40;86.60;;;;;;5043795;28;20037;-60
2021/01/26 11:03:53;;;;;;;24.13;18.38;;;2.30;87.00;;;;;;5033245;28;20052;-63
2021/01/26 11:06:23;;;;;;;25.75;18.50;;;2.40;87.20;;;;;;5048340;28;20466;-62
2021/01/26 11:08:49;;;;;;;25.58;19.40;;;2.40;87.10;;;;;;5052159;28;20045;-58
2021/01/26 11:11:17;;;;;;;26.13;17.52;;;2.30;86.60;;;;;;5037898;28;20117;-60
2021/01/26 11:13:43;;;;;;;27.02;19.73;;;2.30;87.60;;;;;;5032130;28;20044;-59
2021/01/26 11:16:09;;;;;;;26.38;18.77;;;2.40;87.30;;;;;;5028209;28;20121;-58
2021/01/26 11:18:34;;;;;;;27.15;20.42;;;2.30;87.40;;;;;;5051961;28;20064;-60
2021/01/26 11:21:01;;;;;;;33.08;21.77;;;2.20;87.70;;;;;;5051255;28;20033;-58
2021/01/26 11:23:27;;;;;;;27.10;18.90;;;2.40;92.40;;;;;;5051991;28;20028;-59
2021/01/26 11:25:53;;;;;;;34.67;19.73;;;2.70;87.70;;;;;;5041455;28;20044;-58
2021/01/26 11:28:19;;;;;;;31.98;19.48;;;3.00;89.40;;;;;;5031688;28;20121;-60
2021/01/26 11:30:45;;;;;;;26.98;19.73;;;3.10;85.20;;;;;;5039344;28;20468;-59
2021/01/26 11:33:11;;;;;;;26.05;19.35;;;2.90;84.90;;;;;;5051749;28;20039;-57
2021/01/26 11:35:37;;;;;;;28.40;20.75;;;2.70;85.70;;;;;;5050512;28;20411;-51
2021/01/26 11:38:03;;;;;;;28.13;19.83;;;2.60;86.30;;;;;;5051475;28;20669;-50
2021/01/26 11:40:29;;;;;;;36.17;21.83;;;2.50;86.50;;;;;;5050156;28;20124;-55
2021/01/26 11:42:55;;;;;;;26.95;18.80;;;2.60;87.00;;;;;;5051091;28;20450;-57
2021/01/26 11:45:28;;;;;;;25.33;18.88;;;2.60;86.20;;;;;;5050609;28;20064;-56
2021/01/26 11:47:54;;;;;;;29.33;20.33;;;2.60;86.40;;;;;;5033844;28;20431;-55
2021/01/26 11:50:20;;;;;;;28.45;20.42;;;2.40;87.60;;;;;;5050411;28;20044;-58
2021/01/26 11:52:46;;;;;;;28.60;20.20;;;2.50;86.90;;;;;;5051736;28;20036;-56
2021/01/26 11:55:17;;;;;;;28.75;20.92;;;2.50;87.10;;;;;;5050673;28;20037;-54
2021/01/26 11:57:46;;;;;;;30.10;21.02;;;2.50;86.90;;;;;;5051525;28;20495;-56
2021/01/26 12:00:13;;;;;;;30.55;21.50;;;2.50;87.10;;;;;;5044846;28;20037;-54
2021/01/26 12:02:39;;;;;;;29.75;21.67;;;2.70;87.30;;;;;;5031380;28;20119;-55
2021/01/26 12:05:05;;;;;;;30.10;21.02;;;2.50;87.20;;;;;;5041609;28;20057;-55
2021/01/26 12:07:31;;;;;;;30.55;21.13;;;2.30;88.10;;;;;;5051892;28;20037;-57
2021/01/26 12:09:57;;;;;;;26.88;19.98;;;2.10;88.90;;;;;;5044667;28;20034;-55
2021/01/26 12:12:22;;;;;;;31.58;21.33;;;2.20;88.60;;;;;;5008314;28;20079;-55
2021/01/26 12:14:48;;;;;;;32.45;22.55;;;2.10;89.60;;;;;;5028681;28;20052;-56
2021/01/26 12:17:13;;;;;;;33.08;22.13;;;2.20;89.50;;;;;;5051439;28;20037;-54
2021/01/26 12:19:39;;;;;;;33.20;22.83;;;2.30;89.40;;;;;;5032982;28;20049;-54
2021/01/26 12:22:04;;;;;;;28.67;21.90;;;2.20;89.50;;;;;;5051653;28;20287;-53
2021/01/26 12:24:30;;;;;;;37.20;23.83;;;2.40;89.10;;;;;;5029766;28;20036;-56
2021/01/26 12:26:56;;;;;;;33.50;22.48;;;2.40;89.20;;;;;;5037769;28;20113;-58
2021/01/26 12:29:22;;;;;;;30.67;21.20;;;2.50;89.00;;;;;;5049325;28;20033;-58
2021/01/26 12:31:48;;;;;;;35.90;22.83;;;2.40;89.40;;;;;;5018453;28;20064;-56
2021/01/26 12:34:14;;;;;;;35.92;23.58;;;2.30;90.10;;;;;;5053681;28;20033;-59
2021/01/26 12:36:40;;;;;;;35.25;22.92;;;2.10;90.50;;;;;;5053894;28;20037;-59
2021/01/26 12:39:06;;;;;;;32.17;22.27;;;2.20;90.70;;;;;;5020037;28;20045;-53
2021/01/26 12:41:32;;;;;;;33.10;23.02;;;2.30;90.30;;;;;;5036593;28;20048;-59
2021/01/26 12:43:58;;;;;;;33.97;21.95;;;2.30;90.20;;;;;;5049198;28;20510;-60
2021/01/26 12:46:25;;;;;;;35.50;23.35;;;2.30;90.40;;;;;;5036314;28;20080;-58
2021/01/26 12:48:51;;;;;;;38.88;25.13;;;2.10;90.80;;;;;;5035953;28;20037;-59
2021/01/26 12:51:16;;;;;;;36.35;24.98;;;2.20;90.70;;;;;;5050955;28;20032;-61
2021/01/26 12:53:42;;;;;;;36.75;24.55;;;2.20;90.70;;;;;;5045643;28;20044;-61
2021/01/26 12:56:08;;;;;;;35.53;23.90;;;2.20;90.60;;;;;;5053940;28;20048;-59
2021/01/26 12:58:34;;;;;;;38.08;23.45;;;2.20;90.60;;;;;;5055576;28;20029;-60
2021/01/26 13:00:59;;;;;;;40.88;24.55;;;2.20;90.60;;;;;;5054748;28;20033;-60
2021/01/26 13:03:25;;;;;;;47.72;27.15;;;2.20;90.80;;;;;;5054741;28;20045;-60
2021/01/26 13:05:50;;;;;;;41.22;27.10;;;2.00;91.30;;;;;;5036036;28;20033;-58
2021/01/26 13:08:16;;;;;;;39.90;25.02;;;2.00;91.30;;;;;;5036235;28;20040;-60